This is the latest recevied weather packets stored in our database for station/object KG4YZY-1. If no packets are shown the sender has not sent any weather packets the latest 10 day(s).
| Time | Temp. | Humidity | Pressure | Rain* | Wind** | Luminosity | Snow |
|---|---|---|---|---|---|---|---|
| 1787943904 | 27.22° C | 80% | 1018.7 hPa | 0 mm | - | - | - |
| 1787943604 | 27.22° C | 82% | 1018.7 hPa | 0 mm | - | - | - |
| 1787943303 | 27.22° C | 80% | 1018.7 hPa | 0 mm | - | - | - |
| 1787943004 | 27.22° C | 78% | 1019 hPa | 0 mm | - | - | - |
| 1787942703 | 27.78° C | 79% | 1019.3 hPa | 0 mm | - | - | - |
| 1787942403 | 27.22° C | 79% | 1019.2 hPa | 0 mm | - | - | - |
| 1787942103 | 27.22° C | 78% | 1019.2 hPa | 0 mm | - | - | - |
| 1787941804 | 27.78° C | 76% | 1019.3 hPa | 0 mm | - | - | - |
| 1787941504 | 28.89° C | 72% | 1019.4 hPa | 0 mm | - | - | - |
| 1787941203 | 31.11° C | 67% | 1019.4 hPa | 0 mm | - | - | - |
| 1787940903 | 32.78° C | 66% | 1019.3 hPa | 0 mm | - | - | - |
| 1787940603 | 32.78° C | 66% | 1019.3 hPa | 0 mm | - | - | - |
| 1787940303 | 32.78° C | 64% | 1019.3 hPa | 0 mm | - | - | - |
| 1787940004 | 33.33° C | 65% | 1019.2 hPa | 0 mm | - | - | - |
| 1787939703 | 33.33° C | 64% | 1019.1 hPa | 0 mm | - | - | - |
| 1787939403 | 33.33° C | 64% | 1019.4 hPa | 0 mm | - | - | - |
| 1787939104 | 33.33° C | 64% | 1019.4 hPa | 0 mm | - | - | - |
| 1787938804 | 33.33° C | 64% | 1019.4 hPa | 0 mm | - | - | - |
| 1787938504 | 33.33° C | 65% | 1019.4 hPa | 0 mm | - | - | - |
| 1787938204 | 32.78° C | 67% | 1019.3 hPa | 0 mm | - | - | - |
| 1787937904 | 32.78° C | 68% | 1019.3 hPa | 0 mm | - | - | - |
| 1787937603 | 32.78° C | 68% | 1019.3 hPa | 0 mm | - | - | - |
| 1787937303 | 32.78° C | 70% | 1019.4 hPa | 0 mm | - | - | - |
| 1787937004 | 32.78° C | 70% | 1019.5 hPa | 0 mm | - | - | - |
| 1787936704 | 32.22° C | 72% | 1019.5 hPa | 0 mm | - | - | - |
* Rain latest hour (hover to see other rain measurements)
** Current wind speed in m/s (hover to see current wind gust speed)